createdAt,value
2023-10-12T00:00:22.884Z,3.53
2023-10-12T00:03:13.757Z,3.78
2023-10-12T00:05:47.289Z,3.90
2023-10-12T00:08:32.308Z,3.85
2023-10-12T00:11:07.800Z,3.00
2023-10-12T00:13:43.234Z,4.20
2023-10-12T00:16:11.333Z,3.60
2023-10-12T00:18:40.157Z,4.70
2023-10-12T00:21:16.734Z,4.70
2023-10-12T00:23:45.599Z,5.40
2023-10-12T00:26:14.967Z,6.10
2023-10-12T00:28:46.452Z,6.10
2023-10-12T00:31:19.895Z,5.70
2023-10-12T00:33:50.930Z,5.85
2023-10-12T00:36:23.593Z,5.47
2023-10-12T00:38:53.628Z,5.45
2023-10-12T00:41:21.954Z,5.00
2023-10-12T00:44:10.074Z,4.77
2023-10-12T00:46:40.002Z,5.50
2023-10-12T00:49:16.963Z,5.20
2023-10-12T00:51:53.257Z,4.82
2023-10-12T00:54:29.011Z,4.97
2023-10-12T00:56:59.087Z,5.80
2023-10-12T00:59:28.639Z,6.72
2023-10-12T01:01:57.066Z,5.97
2023-10-12T01:04:24.765Z,6.30
2023-10-12T01:06:52.598Z,6.93
2023-10-12T01:09:21.091Z,6.43
2023-10-12T01:11:59.128Z,7.45
2023-10-12T01:14:32.585Z,5.45
2023-10-12T01:17:05.623Z,6.97
2023-10-12T01:19:35.180Z,6.85
2023-10-12T01:22:14.849Z,7.20
2023-10-12T01:24:58.986Z,6.57
2023-10-12T01:27:28.520Z,7.55
2023-10-12T01:30:15.314Z,7.07
2023-10-12T01:32:43.288Z,6.47
2023-10-12T01:35:13.638Z,6.30
2023-10-12T01:37:57.357Z,6.40
2023-10-12T01:40:26.550Z,5.85
2023-10-12T01:42:58.237Z,6.82
2023-10-12T01:45:33.633Z,7.63
2023-10-12T01:48:17.591Z,8.87
2023-10-12T01:50:45.546Z,9.43
2023-10-12T01:53:23.676Z,11.77
2023-10-12T01:55:52.959Z,11.05
2023-10-12T01:58:22.576Z,6.60
2023-10-12T02:00:53.462Z,5.82
2023-10-12T02:03:28.870Z,6.00
2023-10-12T02:06:03.840Z,5.63
2023-10-12T02:08:48.207Z,5.38
2023-10-12T02:11:17.396Z,5.53
2023-10-12T02:13:49.372Z,5.70
2023-10-12T02:16:33.485Z,6.15
2023-10-12T02:19:06.415Z,5.93
2023-10-12T02:21:35.389Z,7.13
2023-10-12T02:24:06.516Z,6.78
2023-10-12T02:26:50.707Z,6.72
2023-10-12T02:29:21.872Z,6.35
2023-10-12T02:31:53.897Z,6.40
2023-10-12T02:34:30.354Z,5.97
2023-10-12T02:37:18.960Z,5.80
2023-10-12T02:39:48.764Z,5.67
2023-10-12T02:42:17.221Z,9.43
2023-10-12T02:44:56.930Z,6.10
2023-10-12T02:47:31.505Z,8.30
2023-10-12T02:50:22.804Z,8.70
2023-10-12T02:52:53.924Z,5.60
2023-10-12T02:55:22.608Z,6.20
2023-10-12T02:58:00.204Z,9.50
2023-10-12T03:00:43.596Z,10.63
2023-10-12T03:03:33.423Z,20.45
2023-10-12T03:06:13.202Z,6.57
2023-10-12T03:08:59.556Z,5.18
2023-10-12T03:11:33.178Z,5.20
2023-10-12T03:14:17.788Z,5.43
2023-10-12T03:16:48.627Z,5.68
2023-10-12T03:19:19.771Z,5.45
2023-10-12T03:21:54.056Z,8.45
2023-10-12T03:24:23.361Z,5.50
2023-10-12T03:27:00.275Z,12.30
2023-10-12T03:29:28.267Z,10.20
2023-10-12T03:31:59.106Z,9.05
2023-10-12T03:34:36.301Z,7.68
2023-10-12T03:37:05.881Z,5.45
2023-10-12T03:39:45.631Z,5.85
2023-10-12T03:42:34.059Z,5.78
2023-10-12T03:45:26.305Z,5.93
2023-10-12T03:48:25.317Z,6.25
2023-10-12T03:51:22.049Z,6.88
2023-10-12T03:53:59.444Z,6.57
2023-10-12T03:56:30.514Z,6.72
2023-10-12T03:59:07.804Z,7.47
2023-10-12T04:01:42.722Z,6.82
2023-10-12T04:04:19.271Z,6.57
2023-10-12T04:07:02.347Z,5.85
2023-10-12T04:09:35.736Z,5.90
2023-10-12T04:12:22.307Z,7.28
2023-10-12T04:14:56.437Z,6.57
2023-10-12T04:17:27.488Z,6.40
2023-10-12T04:20:08.466Z,6.60
2023-10-12T04:22:51.879Z,5.72
2023-10-12T04:25:40.635Z,6.10
2023-10-12T04:28:26.920Z,5.15
2023-10-12T04:30:58.914Z,8.82
2023-10-12T04:33:28.725Z,6.78
2023-10-12T04:36:14.977Z,4.97
2023-10-12T04:38:43.025Z,5.07
2023-10-12T04:41:20.280Z,5.20
2023-10-12T04:44:22.911Z,5.35
2023-10-12T04:46:52.906Z,4.95
2023-10-12T04:49:20.783Z,5.95
2023-10-12T04:52:07.209Z,6.45
2023-10-12T04:54:38.313Z,6.72
2023-10-12T04:57:06.462Z,6.75
2023-10-12T04:59:49.388Z,6.47
2023-10-12T05:02:33.502Z,7.13
2023-10-12T05:05:05.684Z,6.45
2023-10-12T05:07:46.143Z,6.43
2023-10-12T05:10:17.048Z,7.65
2023-10-12T05:12:45.245Z,12.88
2023-10-12T05:15:13.169Z,13.20
2023-10-12T05:17:41.462Z,11.35
2023-10-12T05:20:10.203Z,8.70
2023-10-12T05:22:38.275Z,6.60
2023-10-12T05:25:06.666Z,6.28
2023-10-12T05:27:40.874Z,6.75
2023-10-12T05:30:17.871Z,6.55
2023-10-12T05:32:46.005Z,6.22
2023-10-12T05:35:17.955Z,6.25
2023-10-12T05:37:53.407Z,6.63
2023-10-12T05:40:22.196Z,7.20
2023-10-12T05:42:52.430Z,6.35
2023-10-12T05:45:24.325Z,6.68
2023-10-12T05:47:54.209Z,7.35
2023-10-12T05:50:25.509Z,7.47
2023-10-12T05:53:01.132Z,6.72
2023-10-12T05:55:29.863Z,6.28
2023-10-12T05:58:11.419Z,6.60
2023-10-12T06:00:58.149Z,7.32
2023-10-12T06:03:26.467Z,8.77
2023-10-12T06:05:56.886Z,8.50
2023-10-12T06:08:28.329Z,7.95
2023-10-12T06:10:56.415Z,8.07
2023-10-12T06:13:32.209Z,7.80
2023-10-12T06:16:00.324Z,8.60
2023-10-12T06:18:32.675Z,8.00
2023-10-12T06:21:00.374Z,8.10
2023-10-12T06:23:32.409Z,7.05
2023-10-12T06:26:07.478Z,7.20
2023-10-12T06:28:40.120Z,7.85
2023-10-12T06:31:09.613Z,7.80
2023-10-12T06:33:43.467Z,8.67
2023-10-12T06:36:18.897Z,8.40
2023-10-12T06:39:10.199Z,7.55
2023-10-12T06:41:37.872Z,8.25
2023-10-12T06:44:22.579Z,7.55
2023-10-12T06:46:51.096Z,8.13
2023-10-12T06:49:40.172Z,8.13
2023-10-12T06:52:15.768Z,7.95
2023-10-12T06:54:51.073Z,24.30
2023-10-12T06:57:18.959Z,8.20
2023-10-12T07:00:00.076Z,8.07
2023-10-12T07:02:31.816Z,8.43
2023-10-12T07:05:03.302Z,6.75
2023-10-12T07:07:43.317Z,7.50
2023-10-12T07:10:12.296Z,7.60
2023-10-12T07:12:49.854Z,7.77
2023-10-12T07:15:23.639Z,10.40
2023-10-12T07:17:52.283Z,9.82
2023-10-12T07:20:28.947Z,47.60
2023-10-12T07:22:58.376Z,26.15
2023-10-12T07:25:28.044Z,24.50
2023-10-12T07:28:00.892Z,25.63
2023-10-12T07:30:34.868Z,24.48
2023-10-12T07:33:06.278Z,18.90
2023-10-12T07:35:36.440Z,98.45
2023-10-12T07:38:35.473Z,17.87
2023-10-12T07:41:07.075Z,50.90
2023-10-12T07:43:34.978Z,49.50
2023-10-12T07:46:24.712Z,16.77
2023-10-12T07:48:53.180Z,9.48
2023-10-12T07:51:26.514Z,9.33
2023-10-12T07:54:28.395Z,8.85
2023-10-12T07:56:56.617Z,7.90
2023-10-12T07:59:25.156Z,8.68
2023-10-12T08:01:53.472Z,7.35
2023-10-12T08:04:31.138Z,8.80
2023-10-12T08:07:01.491Z,6.95
2023-10-12T08:09:32.195Z,6.63
2023-10-12T08:12:01.379Z,12.35
2023-10-12T08:14:29.194Z,7.60
2023-10-12T08:17:15.685Z,6.13
2023-10-12T08:19:46.563Z,8.55
2023-10-12T08:22:32.993Z,8.45
2023-10-12T08:25:01.434Z,6.78
2023-10-12T08:27:40.804Z,6.72
2023-10-12T08:30:35.171Z,6.07
2023-10-12T08:33:15.839Z,22.58
2023-10-12T08:36:03.165Z,10.90
2023-10-12T08:38:57.942Z,9.35
2023-10-12T08:41:29.035Z,7.50
2023-10-12T08:44:01.394Z,7.83
2023-10-12T08:46:59.705Z,7.22
2023-10-12T08:49:43.290Z,5.20
2023-10-12T08:52:23.324Z,5.72
2023-10-12T08:54:52.918Z,6.53
2023-10-12T08:57:36.929Z,6.77
2023-10-12T09:00:30.578Z,6.55
2023-10-12T09:03:02.142Z,7.30
2023-10-12T09:05:32.280Z,6.20
2023-10-12T09:08:07.666Z,4.72
2023-10-12T09:10:54.708Z,3.77
2023-10-12T09:13:26.370Z,4.00
2023-10-12T09:15:59.608Z,6.70
2023-10-12T09:18:36.811Z,5.85
2023-10-12T09:21:22.433Z,6.45
2023-10-12T09:23:54.109Z,6.57
2023-10-12T09:26:32.067Z,5.18
2023-10-12T09:29:06.893Z,5.22
2023-10-12T09:31:40.253Z,19.80
2023-10-12T09:34:13.139Z,5.10
2023-10-12T09:36:45.971Z,4.17
2023-10-12T09:39:17.378Z,5.25
2023-10-12T09:41:58.074Z,4.80
2023-10-12T09:44:28.435Z,3.58
2023-10-12T09:46:58.196Z,4.10
2023-10-12T09:49:28.930Z,3.60
2023-10-12T09:52:06.175Z,3.70
2023-10-12T09:54:47.290Z,3.20
2023-10-12T09:57:21.601Z,3.38
2023-10-12T09:59:53.951Z,3.78
2023-10-12T10:02:35.720Z,3.57
2023-10-12T10:05:29.018Z,4.30
2023-10-12T10:08:25.027Z,3.47
2023-10-12T10:10:59.809Z,12.65
2023-10-12T10:13:43.064Z,3.38
2023-10-12T10:16:11.969Z,3.30
2023-10-12T10:18:48.242Z,3.90
2023-10-12T10:21:24.880Z,6.93
2023-10-12T10:23:54.320Z,10.23
2023-10-12T10:26:25.309Z,3.63
2023-10-12T10:28:57.015Z,3.37
2023-10-12T10:31:34.058Z,3.30
2023-10-12T10:34:07.785Z,3.05
2023-10-12T10:36:36.146Z,3.50
2023-10-12T10:39:13.081Z,3.90
2023-10-12T10:41:41.902Z,3.70
2023-10-12T10:44:18.120Z,4.85
2023-10-12T10:46:48.184Z,3.30
2023-10-12T10:52:16.475Z,3.33
2023-10-12T10:54:58.900Z,2.87
2023-10-12T10:57:27.156Z,2.60
2023-10-12T10:59:55.511Z,2.83
2023-10-12T11:02:24.248Z,3.63
2023-10-12T11:05:02.969Z,3.35
2023-10-12T11:07:31.148Z,3.27
2023-10-12T11:09:59.339Z,3.20
2023-10-12T11:12:33.278Z,2.63
2023-10-12T11:15:02.134Z,2.67
2023-10-12T11:17:32.284Z,2.75
2023-10-12T11:20:00.533Z,3.10
2023-10-12T11:22:28.715Z,2.80
2023-10-12T11:24:59.155Z,2.72
2023-10-12T11:27:34.458Z,3.13
2023-10-12T11:30:14.050Z,4.40
2023-10-12T11:32:57.068Z,2.80
2023-10-12T11:35:42.328Z,2.50
2023-10-12T11:38:22.156Z,2.40
2023-10-12T11:40:56.873Z,2.40
2023-10-12T11:43:46.001Z,3.20
2023-10-12T11:46:16.381Z,2.10
2023-10-12T11:48:44.468Z,2.60
2023-10-12T11:51:13.422Z,2.30
2023-10-12T11:53:42.994Z,1.80
2023-10-12T11:56:14.773Z,2.13
2023-10-12T11:58:48.994Z,1.93
2023-10-12T12:01:17.365Z,2.83
2023-10-12T12:03:47.235Z,3.00
2023-10-12T12:06:22.809Z,2.60
2023-10-12T12:08:52.780Z,3.70
2023-10-12T12:11:21.400Z,3.80
2023-10-12T12:13:49.940Z,3.55
2023-10-12T12:16:22.895Z,3.38
2023-10-12T12:18:53.590Z,2.90
2023-10-12T12:21:33.170Z,2.72
2023-10-12T12:24:17.043Z,2.40
2023-10-12T12:26:52.068Z,2.33
2023-10-12T12:29:38.331Z,2.25
2023-10-12T12:32:19.790Z,2.97
2023-10-12T12:34:49.728Z,2.65
2023-10-12T12:37:20.772Z,3.10
2023-10-12T12:40:13.149Z,2.88
2023-10-12T12:42:41.525Z,1.88
2023-10-12T12:45:09.682Z,2.05
2023-10-12T12:47:37.852Z,2.47
2023-10-12T12:50:06.241Z,2.00
2023-10-12T12:52:34.299Z,2.35
2023-10-12T12:55:03.011Z,3.00
2023-10-12T12:57:31.271Z,2.38
2023-10-12T13:00:01.434Z,2.40
2023-10-12T13:02:29.927Z,2.43
2023-10-12T13:04:57.631Z,2.40
2023-10-12T13:07:25.906Z,2.65
2023-10-12T13:09:55.373Z,2.63
2023-10-12T13:12:24.387Z,2.40
2023-10-12T13:14:52.118Z,3.20
2023-10-12T13:17:20.365Z,2.95
2023-10-12T13:19:51.610Z,2.85
2023-10-12T13:22:19.684Z,2.70
2023-10-12T13:24:50.574Z,2.78
2023-10-12T13:27:23.001Z,2.77
2023-10-12T13:29:51.538Z,2.38
2023-10-12T13:32:20.286Z,2.72
2023-10-12T13:34:48.188Z,2.60
2023-10-12T13:37:16.162Z,2.90
2023-10-12T13:39:44.174Z,2.73
2023-10-12T13:42:13.295Z,2.28
2023-10-12T13:44:43.221Z,2.88
2023-10-12T13:47:14.715Z,3.00
2023-10-12T13:49:42.804Z,2.90
2023-10-12T13:52:13.921Z,2.90
2023-10-12T13:54:47.308Z,2.55
2023-10-12T13:57:16.210Z,2.30
2023-10-12T13:59:47.120Z,2.53
2023-10-12T14:02:15.906Z,2.38
2023-10-12T14:04:43.677Z,2.50
2023-10-12T14:07:14.033Z,2.75
2023-10-12T14:09:42.112Z,2.53
2023-10-12T14:12:12.171Z,2.22
2023-10-12T14:14:40.184Z,2.67
2023-10-12T14:17:09.563Z,2.23
2023-10-12T14:19:37.494Z,3.60
2023-10-12T14:22:09.084Z,5.35
2023-10-12T14:24:37.553Z,3.53
2023-10-12T14:27:08.249Z,2.97
2023-10-12T14:29:37.737Z,2.80
2023-10-12T14:32:05.914Z,2.40
2023-10-12T14:34:33.710Z,2.55
2023-10-12T14:37:01.877Z,2.80
2023-10-12T14:39:31.546Z,2.28
2023-10-12T14:41:59.793Z,2.67
2023-10-12T14:44:29.322Z,2.85
2023-10-12T14:46:59.973Z,2.83
2023-10-12T14:49:27.995Z,2.83
2023-10-12T14:51:56.096Z,3.35
2023-10-12T14:54:24.168Z,2.40
2023-10-12T14:56:55.140Z,3.08
2023-10-12T14:59:23.475Z,2.97
2023-10-12T15:01:53.265Z,2.55
2023-10-12T15:04:22.150Z,2.70
2023-10-12T15:06:50.378Z,2.73
2023-10-12T15:09:26.123Z,3.75
2023-10-12T15:11:54.638Z,2.90
2023-10-12T15:14:22.220Z,2.53
2023-10-12T15:16:51.779Z,2.80
2023-10-12T15:19:21.039Z,2.37
2023-10-12T15:21:50.739Z,1.80
2023-10-12T15:24:18.716Z,2.00
2023-10-12T15:26:47.034Z,2.55
2023-10-12T15:29:15.829Z,2.70
2023-10-12T15:31:44.299Z,2.07
2023-10-12T15:34:14.920Z,2.70
2023-10-12T15:36:46.350Z,2.63
2023-10-12T15:39:17.861Z,3.42
2023-10-12T15:41:46.647Z,3.67
2023-10-12T15:44:14.904Z,3.20
2023-10-12T15:46:43.992Z,3.28
2023-10-12T15:49:12.113Z,3.80
2023-10-12T15:51:41.039Z,3.17
2023-10-12T15:54:13.705Z,3.60
2023-10-12T15:56:42.031Z,2.60
2023-10-12T15:59:11.402Z,3.58
2023-10-12T16:01:40.908Z,3.47
2023-10-12T16:04:09.991Z,3.72
2023-10-12T16:06:38.312Z,4.25
2023-10-12T16:09:11.464Z,3.30
2023-10-12T16:11:40.347Z,4.20
2023-10-12T16:14:08.554Z,3.15
2023-10-12T16:16:37.501Z,3.33
2023-10-12T16:19:06.615Z,2.53
2023-10-12T16:21:35.464Z,2.43
2023-10-12T16:24:06.378Z,2.10
2023-10-12T16:26:35.955Z,2.45
2023-10-12T16:29:05.976Z,2.90
2023-10-12T16:31:37.440Z,2.15
2023-10-12T16:34:08.163Z,2.60
2023-10-12T16:36:37.552Z,3.97
2023-10-12T16:39:07.974Z,2.70
2023-10-12T16:41:36.549Z,2.75
2023-10-12T16:44:04.842Z,2.08
2023-10-12T16:46:33.765Z,4.17
2023-10-12T16:49:02.465Z,5.07
2023-10-12T16:51:30.929Z,5.88
2023-10-12T16:53:58.706Z,4.15
2023-10-12T16:56:26.979Z,2.40
2023-10-12T16:58:56.268Z,2.80
2023-10-12T17:01:25.707Z,2.42
2023-10-12T17:03:53.770Z,11.68
2023-10-12T17:06:22.367Z,34.45
2023-10-12T17:08:51.579Z,31.50
2023-10-12T17:11:20.006Z,28.83
2023-10-12T17:13:47.743Z,52.58
2023-10-12T17:16:16.313Z,26.13
2023-10-12T17:18:47.462Z,19.77
2023-10-12T17:21:15.645Z,16.65
2023-10-12T17:23:43.434Z,18.20
2023-10-12T17:26:14.560Z,16.52
2023-10-12T17:28:43.295Z,14.80
2023-10-12T17:31:12.521Z,16.23
2023-10-12T17:33:42.867Z,16.17
2023-10-12T17:36:12.423Z,15.57
2023-10-12T17:38:40.750Z,15.13
2023-10-12T17:41:10.737Z,12.18
2023-10-12T17:43:42.469Z,4.30
2023-10-12T17:46:11.802Z,3.22
2023-10-12T17:48:40.792Z,3.40
2023-10-12T17:51:18.205Z,3.20
2023-10-12T17:53:49.682Z,8.32
2023-10-12T17:56:19.457Z,11.57
2023-10-12T17:58:47.595Z,20.10
2023-10-12T18:01:16.077Z,14.97
2023-10-12T18:03:44.111Z,25.45
2023-10-12T18:06:13.442Z,15.60
2023-10-12T18:08:42.657Z,4.97
2023-10-12T18:11:17.706Z,2.88
2023-10-12T18:13:45.964Z,2.70
2023-10-12T18:16:16.247Z,2.42
2023-10-12T18:18:44.589Z,3.13
2023-10-12T18:21:12.940Z,4.13
2023-10-12T18:23:41.333Z,26.90
2023-10-12T18:26:11.720Z,26.23
2023-10-12T18:28:39.761Z,49.83
2023-10-12T18:31:11.147Z,55.47
2023-10-12T18:33:40.981Z,33.65
2023-10-12T18:36:11.313Z,15.27
2023-10-12T18:38:39.995Z,9.60
2023-10-12T18:41:10.210Z,7.57
2023-10-12T18:43:43.430Z,6.10
2023-10-12T18:46:11.790Z,3.85
2023-10-12T18:48:39.514Z,2.90
2023-10-12T18:51:11.146Z,2.70
2023-10-12T18:53:43.260Z,3.72
2023-10-12T18:56:16.256Z,3.00
2023-10-12T18:58:47.792Z,3.03
2023-10-12T19:01:16.055Z,3.35
2023-10-12T19:03:44.675Z,2.57
2023-10-12T19:06:17.158Z,3.50
2023-10-12T19:08:47.628Z,3.85
2023-10-12T19:11:18.293Z,3.80
2023-10-12T19:13:47.985Z,3.67
2023-10-12T19:16:20.094Z,3.30
2023-10-12T19:18:54.786Z,3.38
2023-10-12T19:21:23.612Z,4.85
2023-10-12T19:23:51.247Z,30.17
2023-10-12T19:26:19.920Z,35.22
2023-10-12T19:28:47.671Z,25.00
2023-10-12T19:31:19.251Z,12.70
2023-10-12T19:33:48.231Z,6.05
2023-10-12T19:36:16.200Z,4.03
2023-10-12T19:38:44.325Z,3.25
2023-10-12T19:41:12.376Z,3.77
2023-10-12T19:43:41.363Z,2.72
2023-10-12T19:46:12.865Z,5.03
2023-10-12T19:48:41.197Z,50.33
2023-10-12T19:51:14.241Z,26.05
2023-10-12T19:53:43.986Z,9.10
2023-10-12T19:56:20.306Z,6.47
2023-10-12T19:58:49.968Z,3.58
2023-10-12T20:01:24.110Z,3.35
2023-10-12T20:03:52.664Z,3.20
2023-10-12T20:06:21.807Z,5.00
2023-10-12T20:08:49.949Z,6.65
2023-10-12T20:11:19.240Z,5.13
2023-10-12T20:13:49.556Z,3.22
2023-10-12T20:16:25.011Z,3.67
2023-10-12T20:18:53.984Z,3.67
2023-10-12T20:21:22.016Z,3.85
2023-10-12T20:23:50.391Z,3.40
2023-10-12T20:26:19.222Z,5.45
2023-10-12T20:28:47.888Z,4.10
2023-10-12T20:31:16.159Z,4.60
2023-10-12T20:33:47.353Z,4.05
2023-10-12T20:36:15.495Z,3.28
2023-10-12T20:38:43.202Z,3.00
2023-10-12T20:41:12.095Z,3.30
2023-10-12T20:43:39.645Z,4.17
2023-10-12T20:46:11.239Z,3.30
2023-10-12T20:48:40.296Z,3.20
2023-10-12T20:51:08.326Z,4.85
2023-10-12T20:53:36.120Z,5.38
2023-10-12T20:56:10.545Z,6.67
2023-10-12T20:58:42.129Z,5.57
2023-10-12T21:01:23.559Z,6.65
2023-10-12T21:03:59.102Z,7.03
2023-10-12T21:06:32.583Z,7.88
2023-10-12T21:09:13.990Z,9.13
2023-10-12T21:11:50.086Z,7.88
2023-10-12T21:14:28.390Z,6.80
2023-10-12T21:17:06.190Z,6.35
2023-10-12T21:19:46.968Z,6.50
2023-10-12T21:22:19.254Z,6.37
2023-10-12T21:24:56.502Z,5.22
2023-10-12T21:27:40.567Z,5.30
2023-10-12T21:30:08.812Z,4.68
2023-10-12T21:32:41.217Z,4.18
2023-10-12T21:35:10.717Z,4.10
2023-10-12T21:37:39.504Z,3.75
2023-10-12T21:40:31.614Z,3.78
2023-10-12T21:43:09.209Z,3.85
2023-10-12T21:45:42.588Z,3.88
2023-10-12T21:48:14.603Z,4.40
2023-10-12T21:50:42.952Z,4.28
2023-10-12T21:53:10.831Z,3.88
2023-10-12T21:55:38.836Z,4.07
2023-10-12T21:58:07.620Z,3.75
2023-10-12T22:00:41.030Z,3.17
2023-10-12T22:03:10.253Z,4.20
2023-10-12T22:05:37.977Z,3.60
2023-10-12T22:08:06.039Z,3.95
2023-10-12T22:10:33.480Z,3.85
2023-10-12T22:13:09.847Z,3.67
2023-10-12T22:15:56.138Z,4.70
2023-10-12T22:18:24.173Z,4.05
2023-10-12T22:20:57.665Z,4.30
2023-10-12T22:23:25.899Z,3.92
2023-10-12T22:25:53.567Z,4.27
2023-10-12T22:28:21.854Z,4.35
2023-10-12T22:30:52.577Z,4.18
2023-10-12T22:33:20.481Z,4.40
2023-10-12T22:36:00.360Z,4.10
2023-10-12T22:38:31.182Z,4.17
2023-10-12T22:41:02.213Z,4.60
2023-10-12T22:43:30.585Z,4.55
2023-10-12T22:45:58.650Z,4.82
2023-10-12T22:48:26.454Z,6.05
2023-10-12T22:50:53.967Z,5.65
2023-10-12T22:53:21.875Z,5.68
2023-10-12T22:55:49.302Z,5.78
2023-10-12T22:58:17.154Z,7.43
2023-10-12T23:00:47.972Z,7.88
2023-10-12T23:03:15.909Z,7.10
2023-10-12T23:05:46.090Z,8.00
2023-10-12T23:08:16.473Z,8.77
2023-10-12T23:10:48.264Z,7.97
2023-10-12T23:13:16.332Z,7.97
2023-10-12T23:15:46.949Z,7.95
2023-10-12T23:18:14.755Z,8.00
2023-10-12T23:20:46.262Z,8.23
2023-10-12T23:23:16.328Z,6.80
2023-10-12T23:25:45.247Z,6.57
2023-10-12T23:28:20.644Z,6.70
2023-10-12T23:31:06.259Z,6.60
2023-10-12T23:33:35.460Z,6.45
2023-10-12T23:36:03.125Z,6.60
2023-10-12T23:38:33.711Z,7.10
2023-10-12T23:41:16.681Z,7.70
2023-10-12T23:43:56.317Z,6.43
2023-10-12T23:46:24.927Z,6.60
2023-10-12T23:48:58.545Z,5.93
2023-10-12T23:51:31.110Z,5.72
2023-10-12T23:54:07.874Z,5.93
2023-10-12T23:56:41.617Z,7.10
2023-10-12T23:59:09.673Z,6.47
